createdAt,value
2016-09-02T00:00:38.201Z,72.5
2016-09-02T00:01:38.166Z,72.73
2016-09-02T00:02:38.182Z,72.6
2016-09-02T00:03:52.893Z,73.08
2016-09-02T00:04:38.088Z,73.08
2016-09-02T00:05:38.067Z,73.18
2016-09-02T00:06:38.296Z,74.1
2016-09-02T00:07:38.361Z,74.88
2016-09-02T00:08:37.978Z,75.07
2016-09-02T00:09:38.728Z,74.88
2016-09-02T00:10:37.939Z,75.07
2016-09-02T00:11:37.906Z,74.78
2016-09-02T00:12:37.900Z,75.07
2016-09-02T00:13:37.858Z,75.36
2016-09-02T00:14:37.834Z,75.61
2016-09-02T00:15:37.816Z,75.45
2016-09-02T00:16:37.793Z,75.07
2016-09-02T00:17:37.871Z,74.97
2016-09-02T00:18:52.407Z,75.26
2016-09-02T00:19:37.755Z,75.42
2016-09-02T00:20:52.718Z,75.32
2016-09-02T00:21:37.669Z,75.51
2016-09-02T00:23:37.640Z,75.42
2016-09-02T00:24:37.591Z,75.42
2016-09-02T00:25:37.589Z,75.9
2016-09-02T00:26:37.543Z,76.28
2016-09-02T00:27:37.514Z,77.06
2016-09-02T00:28:37.501Z,76.63
2016-09-02T00:29:37.469Z,76.34
2016-09-02T00:30:38.338Z,75.8
2016-09-02T00:31:37.481Z,75.61
2016-09-02T00:32:37.390Z,75.23
2016-09-02T00:33:37.361Z,75.03
2016-09-02T00:34:38.152Z,75.03
2016-09-02T00:35:52.037Z,75.42
2016-09-02T00:36:37.288Z,75.71
2016-09-02T00:37:37.274Z,75.8
2016-09-02T00:38:37.252Z,75.61
2016-09-02T00:39:37.239Z,75.61
2016-09-02T00:40:37.208Z,75.8
2016-09-02T00:41:37.954Z,75.23
2016-09-02T00:42:37.226Z,75.13
2016-09-02T00:43:37.122Z,74.74
2016-09-02T00:45:37.073Z,74.84
2016-09-02T00:46:42.083Z,75.61
2016-09-02T00:47:37.020Z,75.86
2016-09-02T00:48:36.994Z,76.15
2016-09-02T00:49:36.967Z,76.53
2016-09-02T00:50:37.007Z,76.63
2016-09-02T00:51:37.275Z,76.53
2016-09-02T00:52:37.676Z,76.15
2016-09-02T00:53:36.882Z,75.61
2016-09-02T00:54:36.837Z,75.23
2016-09-02T00:55:36.816Z,75.42
2016-09-02T00:56:37.569Z,74.84
2016-09-02T00:57:36.786Z,75.03
2016-09-02T00:58:36.763Z,75.09
2016-09-02T00:59:36.744Z,75.23
2016-09-02T01:00:36.711Z,75.23
2016-09-02T01:01:36.678Z,76.15
2016-09-02T01:02:36.659Z,76.09
2016-09-02T01:03:37.405Z,75.71
2016-09-02T01:04:37.437Z,75.03
2016-09-02T01:05:36.560Z,75.23
2016-09-02T01:06:51.251Z,75.23
2016-09-02T01:07:36.518Z,74.93
2016-09-02T01:08:36.490Z,75.32
2016-09-02T01:09:37.364Z,75.19
2016-09-02T01:10:37.329Z,75.67
2016-09-02T01:11:36.411Z,76.63
2016-09-02T01:12:36.403Z,75.48
2016-09-02T01:13:37.252Z,75.57
2016-09-02T01:14:37.133Z,75.76
2016-09-02T01:15:36.319Z,75.42
2016-09-02T01:16:37.098Z,75.61
2016-09-02T01:17:36.264Z,75.28
2016-09-02T01:18:36.259Z,75.28
2016-09-02T01:19:36.226Z,75.13
2016-09-02T01:20:36.187Z,75.23
2016-09-02T01:21:36.170Z,75.51
2016-09-02T01:22:50.822Z,76.06
2016-09-02T01:23:36.111Z,76.06
2016-09-02T01:24:36.150Z,75.67
2016-09-02T01:25:36.102Z,75.38
2016-09-02T01:26:36.823Z,75.19
2016-09-02T01:27:36.803Z,74.55
2016-09-02T01:28:36.014Z,73.97
2016-09-02T01:29:35.971Z,73.78
2016-09-02T01:30:36.732Z,74.26
2016-09-02T01:31:36.736Z,74.9
2016-09-02T01:32:35.888Z,74.71
2016-09-02T01:33:35.864Z,75.19
2016-09-02T01:34:37.005Z,75.38
2016-09-02T01:35:50.490Z,75.57
2016-09-02T01:36:35.819Z,76.21
2016-09-02T01:37:40.856Z,76.5
2016-09-02T01:38:35.760Z,76.01
2016-09-02T01:39:35.720Z,75.54
2016-09-02T01:40:36.498Z,76.4
2016-09-02T01:41:36.436Z,76.21
2016-09-02T01:42:36.438Z,76.21
2016-09-02T01:43:35.622Z,76.5
2016-09-02T01:44:35.585Z,76.11
2016-09-02T01:45:35.568Z,74.86
2016-09-02T01:46:35.542Z,74.84
2016-09-02T01:47:35.539Z,74.07
2016-09-02T01:48:36.633Z,74.16
2016-09-02T01:49:36.333Z,73.88
2016-09-02T01:50:36.250Z,74.07
2016-09-02T01:51:36.908Z,73.68
2016-09-02T01:52:35.425Z,74.07
2016-09-02T01:53:35.500Z,74.51
2016-09-02T01:54:36.271Z,74.9
2016-09-02T01:55:36.456Z,74.96
2016-09-02T01:56:36.141Z,75.73
2016-09-02T01:57:35.289Z,75.15
2016-09-02T01:58:35.257Z,75.57
2016-09-02T01:59:35.333Z,75.54
2016-09-02T02:00:35.230Z,75.44
2016-09-02T02:01:35.159Z,75.73
2016-09-02T02:02:35.171Z,75.54
2016-09-02T02:03:35.111Z,75.24
2016-09-02T02:04:35.085Z,75.05
2016-09-02T02:05:49.730Z,76.01
2016-09-02T02:06:35.028Z,76.59
2016-09-02T02:07:35.005Z,76.4
2016-09-02T02:08:34.987Z,76.4
2016-09-02T02:09:35.091Z,76.88
2016-09-02T02:10:34.942Z,77.08
2016-09-02T02:11:35.000Z,76.88
2016-09-02T02:12:34.996Z,77.36
2016-09-02T02:14:49.858Z,76.84
2016-09-02T02:15:35.186Z,76.75
2016-09-02T02:16:35.615Z,76.75
2016-09-02T02:17:34.747Z,77.56
2016-09-02T02:18:34.946Z,77.42
2016-09-02T02:19:34.719Z,77.04
2016-09-02T02:20:34.692Z,77.17
2016-09-02T02:21:35.446Z,74.67
2016-09-02T02:22:35.413Z,73.97
2016-09-02T02:23:34.608Z,73.97
2016-09-02T02:24:34.575Z,74.13
2016-09-02T02:25:34.570Z,74.71
2016-09-02T02:26:34.528Z,74.9
2016-09-02T02:27:34.492Z,75.34
2016-09-02T02:28:35.276Z,76.31
2016-09-02T02:29:35.445Z,76.5
2016-09-02T02:30:34.534Z,76.21
2016-09-02T02:31:34.518Z,76.59
2016-09-02T02:32:34.381Z,76.4
2016-09-02T02:33:34.351Z,76.21
2016-09-02T02:34:34.338Z,76.59
2016-09-02T02:35:34.299Z,76.31
2016-09-02T02:36:34.282Z,76.94
2016-09-02T02:37:35.449Z,76.36
2016-09-02T02:38:34.218Z,77.13
2016-09-02T02:39:34.275Z,76.84
2016-09-02T02:40:34.174Z,76.36
2016-09-02T02:41:34.137Z,76.46
2016-09-02T02:42:34.118Z,76.46
2016-09-02T02:44:34.445Z,75.24
2016-09-02T02:45:48.712Z,74.96
2016-09-02T02:46:34.807Z,74.96
2016-09-02T02:47:34.005Z,74.86
2016-09-02T02:48:34.011Z,74.96
2016-09-02T02:49:33.935Z,74.48
2016-09-02T02:50:33.918Z,74.86
2016-09-02T02:51:33.906Z,74.48
2016-09-02T02:52:33.868Z,73.94
2016-09-02T02:53:33.986Z,74.71
2016-09-02T02:54:33.812Z,74.76
2016-09-02T02:55:34.633Z,74.96
2016-09-02T02:56:33.890Z,75.92
2016-09-02T02:57:33.821Z,75.63
2016-09-02T02:58:33.720Z,75.79
2016-09-02T02:59:33.746Z,75.44
2016-09-02T03:00:33.671Z,75.15
2016-09-02T03:01:33.654Z,74.96
2016-09-02T03:02:33.634Z,74.86
2016-09-02T03:05:33.555Z,75.34
2016-09-02T03:06:33.514Z,76.07
2016-09-02T03:08:33.470Z,76.75
2016-09-02T03:09:33.544Z,76.26
2016-09-02T03:10:33.453Z,75.54
2016-09-02T03:11:33.388Z,75.11
2016-09-02T03:12:33.442Z,75.15
2016-09-02T03:13:33.334Z,75.34
2016-09-02T03:14:33.299Z,75.44
2016-09-02T03:15:34.555Z,75.79
2016-09-02T03:16:33.263Z,75.69
2016-09-02T03:17:34.035Z,75.69
2016-09-02T03:18:33.214Z,75.79
2016-09-02T03:19:33.197Z,75.79
2016-09-02T03:20:33.930Z,75.69
2016-09-02T03:21:34.018Z,75.69
2016-09-02T03:22:34.299Z,75.79
2016-09-02T03:23:47.748Z,75.69
2016-09-02T03:24:33.870Z,75.79
2016-09-02T03:25:33.812Z,75.69
2016-09-02T03:26:33.009Z,75.98
2016-09-02T03:27:32.984Z,75.49
2016-09-02T03:28:32.948Z,76.46
2016-09-02T03:29:33.079Z,76.36
2016-09-02T03:30:32.933Z,76.75
2016-09-02T03:31:33.689Z,76.75
2016-09-02T03:32:32.852Z,76.56
2016-09-02T03:33:32.836Z,76.26
2016-09-02T03:34:33.744Z,75.79
2016-09-02T03:35:33.490Z,75.21
2016-09-02T03:36:32.743Z,74.67
2016-09-02T03:37:32.716Z,74.76
2016-09-02T03:38:33.490Z,74.86
2016-09-02T03:39:32.681Z,74.67
2016-09-02T03:40:32.660Z,75.05
2016-09-02T03:41:32.619Z,75.05
2016-09-02T03:42:32.592Z,74.96
2016-09-02T03:43:32.570Z,75.11
2016-09-02T03:44:32.545Z,75.69
2016-09-02T03:45:32.532Z,74.73
2016-09-02T03:46:32.490Z,74.63
2016-09-02T03:47:32.592Z,74.15
2016-09-02T03:48:32.440Z,73.42
2016-09-02T03:49:32.478Z,73.8
2016-09-02T03:50:47.418Z,74.67
2016-09-02T03:51:32.380Z,74.82
2016-09-02T03:52:47.015Z,75.11
2016-09-02T03:53:32.312Z,75.21
2016-09-02T03:54:33.082Z,74.82
2016-09-02T03:55:33.063Z,75.11
2016-09-02T03:56:32.242Z,75.21
2016-09-02T03:57:32.210Z,75.49
2016-09-02T03:58:32.753Z,75.49
2016-09-02T03:59:32.190Z,76.17
2016-09-02T04:00:32.150Z,76.75
2016-09-02T04:01:32.099Z,76.46
2016-09-02T04:02:32.094Z,76.46
2016-09-02T04:03:32.060Z,76.26
2016-09-02T04:04:32.050Z,76.56
2016-09-02T04:05:32.021Z,76.84
2016-09-02T04:06:31.989Z,76.81
2016-09-02T04:07:32.733Z,77
2016-09-02T04:08:31.937Z,77
2016-09-02T04:09:31.906Z,76.71
2016-09-02T04:10:31.884Z,77.29
2016-09-02T04:11:31.846Z,77
2016-09-02T04:12:31.829Z,77.09
2016-09-02T04:13:33.038Z,77.38
2016-09-02T04:14:31.902Z,76.71
2016-09-02T04:15:32.587Z,76.61
2016-09-02T04:16:31.745Z,77
2016-09-02T04:17:31.770Z,76.81
2016-09-02T04:18:31.664Z,75.59
2016-09-02T04:19:32.142Z,75.49
2016-09-02T04:20:31.679Z,76.46
2016-09-02T04:21:31.583Z,76.61
2016-09-02T04:22:32.436Z,75.69
2016-09-02T04:23:31.547Z,74.63
2016-09-02T04:24:31.534Z,74.38
2016-09-02T04:25:31.509Z,75.69
2016-09-02T04:26:31.470Z,75.31
2016-09-02T04:27:46.112Z,75.21
2016-09-02T04:28:31.416Z,74.82
2016-09-02T04:29:31.401Z,74.82
2016-09-02T04:30:32.163Z,75.31
2016-09-02T04:31:31.338Z,75.49
2016-09-02T04:32:31.332Z,74.82
2016-09-02T04:33:31.283Z,75.11
2016-09-02T04:34:45.939Z,74.44
2016-09-02T04:35:32.045Z,74.92
2016-09-02T04:36:31.309Z,74.63
2016-09-02T04:37:31.175Z,74.54
2016-09-02T04:38:31.159Z,74.82
2016-09-02T04:39:31.151Z,75.27
2016-09-02T04:40:31.113Z,75.94
2016-09-02T04:42:31.071Z,76.52
2016-09-02T04:43:31.059Z,76.9
2016-09-02T04:44:31.065Z,76.9
2016-09-02T04:45:31.395Z,77.09
2016-09-02T04:46:30.952Z,76.71
2016-09-02T04:47:30.925Z,76.14
2016-09-02T04:48:30.891Z,76.14
2016-09-02T04:49:30.861Z,76.71
2016-09-02T04:50:30.862Z,76.61
2016-09-02T04:51:30.823Z,76.81
2016-09-02T04:52:30.863Z,76.04
2016-09-02T04:53:30.770Z,75.56
2016-09-02T04:54:30.739Z,75.37
2016-09-02T04:55:30.712Z,75.56
2016-09-02T04:56:30.697Z,75.56
2016-09-02T04:57:30.671Z,76.14
2016-09-02T04:58:30.630Z,76.23
2016-09-02T04:59:30.615Z,75.75
2016-09-02T05:00:30.604Z,74.79
2016-09-02T05:01:30.568Z,74.82
2016-09-02T05:03:30.528Z,75.21
2016-09-02T05:04:30.583Z,75.37
2016-09-02T05:05:30.907Z,75.69
2016-09-02T05:06:30.525Z,75.65
2016-09-02T05:07:30.419Z,75.65
2016-09-02T05:08:30.384Z,75.65
2016-09-02T05:09:30.681Z,76.23
2016-09-02T05:10:30.335Z,76.32
2016-09-02T05:11:30.311Z,76.52
2016-09-02T05:12:30.277Z,75.37
2016-09-02T05:13:30.261Z,75.94
2016-09-02T05:14:31.092Z,75.59
2016-09-02T05:15:30.463Z,75.21
2016-09-02T05:16:45.622Z,75.69
2016-09-02T05:17:30.146Z,75.79
2016-09-02T05:18:30.146Z,76.75
2016-09-02T05:19:30.887Z,77
2016-09-02T05:20:30.857Z,76.81
2016-09-02T05:21:30.113Z,76.94
2016-09-02T05:23:30.786Z,76.61
2016-09-02T05:24:30.016Z,77
2016-09-02T05:25:30.741Z,77.58
2016-09-02T05:26:29.917Z,77.38
2016-09-02T05:27:29.900Z,77.67
2016-09-02T05:28:29.873Z,77.86
2016-09-02T05:29:29.840Z,77.96
2016-09-02T05:30:29.824Z,77.48
2016-09-02T05:31:44.465Z,77.33
2016-09-02T05:32:30.113Z,77.61
2016-09-02T05:33:29.759Z,77.67
2016-09-02T05:34:29.708Z,77.71
2016-09-02T05:35:31.812Z,78.06
2016-09-02T05:36:29.670Z,77.51
2016-09-02T05:37:29.783Z,77.42
2016-09-02T05:38:30.707Z,78.09
2016-09-02T05:39:29.594Z,78.19
2016-09-02T05:40:29.584Z,77.51
2016-09-02T05:41:29.521Z,77.61
2016-09-02T05:42:29.498Z,77.71
2016-09-02T05:43:29.534Z,77.51
2016-09-02T05:44:29.459Z,77.42
2016-09-02T05:45:30.596Z,77.51
2016-09-02T05:46:30.198Z,77.81
2016-09-02T05:47:29.388Z,78.19
2016-09-02T05:48:29.371Z,78.42
2016-09-02T05:49:29.326Z,78.67
2016-09-02T05:51:29.390Z,78.19
2016-09-02T05:52:29.348Z,78.61
2016-09-02T05:53:29.236Z,78.19
2016-09-02T05:54:29.196Z,78.09
2016-09-02T05:55:29.297Z,77.94
2016-09-02T05:56:44.208Z,77.94
2016-09-02T05:57:29.128Z,77.36
2016-09-02T05:58:29.094Z,78.13
2016-09-02T05:59:29.126Z,78.71
2016-09-02T06:00:29.220Z,78.38
2016-09-02T06:01:29.022Z,78.86
2016-09-02T06:02:28.990Z,77.13
2016-09-02T06:03:28.961Z,77.81
2016-09-02T06:04:28.954Z,78
2016-09-02T06:05:29.054Z,78
2016-09-02T06:06:28.971Z,78.19
2016-09-02T06:07:29.825Z,77.46
2016-09-02T06:08:28.897Z,78.03
2016-09-02T06:09:28.808Z,77.08
2016-09-02T06:10:28.795Z,77.17
2016-09-02T06:11:28.788Z,77.21
2016-09-02T06:12:28.734Z,77.11
2016-09-02T06:13:28.701Z,76.34
2016-09-02T06:14:28.684Z,76.73
2016-09-02T06:15:43.336Z,77.01
2016-09-02T06:16:28.672Z,76.48
2016-09-02T06:17:28.612Z,76.38
2016-09-02T06:18:28.584Z,76.38
2016-09-02T06:19:28.558Z,76.67
2016-09-02T06:20:28.922Z,76.38
2016-09-02T06:21:28.529Z,76.67
2016-09-02T06:22:28.480Z,76.48
2016-09-02T06:23:29.242Z,76.48
2016-09-02T06:24:28.432Z,76.48
2016-09-02T06:25:28.480Z,75.03
2016-09-02T06:26:29.174Z,74.68
2016-09-02T06:27:28.367Z,74.49
2016-09-02T06:28:29.207Z,74.88
2016-09-02T06:29:29.392Z,74.68
2016-09-02T06:30:29.056Z,74.58
2016-09-02T06:31:28.242Z,75.26
2016-09-02T06:32:28.248Z,74.88
2016-09-02T06:33:28.222Z,75.36
2016-09-02T06:34:28.228Z,73.95
2016-09-02T06:35:42.846Z,73.08
2016-09-02T06:36:28.183Z,73.08
2016-09-02T06:37:28.114Z,71.15
2016-09-02T06:38:28.087Z,70.61
2016-09-02T06:39:28.073Z,71.09
2016-09-02T06:40:28.058Z,71.67
2016-09-02T06:41:27.992Z,71.54
2016-09-02T06:42:27.986Z,71.09
2016-09-02T06:43:27.950Z,70.9
2016-09-02T06:44:27.944Z,71.67
2016-09-02T06:45:27.907Z,72.5
2016-09-02T06:46:27.888Z,72.25
2016-09-02T06:47:27.865Z,71.15
2016-09-02T06:48:27.819Z,70.7
2016-09-02T06:49:27.800Z,70.51
2016-09-02T06:50:27.775Z,70.22
2016-09-02T06:51:27.759Z,70.06
2016-09-02T06:52:42.395Z,71
2016-09-02T06:53:27.827Z,71.09
2016-09-02T06:54:27.672Z,70.54
2016-09-02T06:55:27.713Z,70.61
2016-09-02T06:56:27.649Z,70.22
2016-09-02T06:57:27.664Z,70.8
2016-09-02T06:58:27.649Z,70.22
2016-09-02T06:59:27.561Z,71.09
2016-09-02T07:00:28.518Z,71.48
2016-09-02T07:01:27.528Z,71.51
2016-09-02T07:02:27.526Z,71.67
2016-09-02T07:03:27.448Z,71.67
2016-09-02T07:04:27.430Z,71.09
2016-09-02T07:05:27.399Z,70.8
2016-09-02T07:06:27.373Z,70.45
2016-09-02T07:07:28.250Z,69.49
2016-09-02T07:08:27.350Z,69.71
2016-09-02T07:09:27.320Z,68.55
2016-09-02T07:10:28.415Z,67.2
2016-09-02T07:11:27.284Z,67.97
2016-09-02T07:12:28.082Z,68.36
2016-09-02T07:13:27.368Z,68.84
2016-09-02T07:14:27.961Z,68.26
2016-09-02T07:15:28.077Z,68.68
2016-09-02T07:17:27.879Z,68.36
2016-09-02T07:18:27.075Z,68.26
2016-09-02T07:19:27.056Z,68.75
2016-09-02T07:20:27.047Z,68.94
2016-09-02T07:21:27.820Z,69.42
2016-09-02T07:22:27.913Z,69.13
2016-09-02T07:23:26.962Z,68.94
2016-09-02T07:24:27.716Z,68.65
2016-09-02T07:25:26.982Z,67.91
2016-09-02T07:26:26.867Z,67.62
2016-09-02T07:27:41.540Z,68.1
2016-09-02T07:29:27.805Z,67.72
2016-09-02T07:30:26.776Z,66.56
2016-09-02T07:31:41.439Z,67.36
2016-09-02T07:32:27.862Z,67.46
2016-09-02T07:33:26.929Z,66.3
2016-09-02T07:34:26.739Z,65.43
2016-09-02T07:35:26.678Z,65.14
2016-09-02T07:36:26.635Z,65.24
2016-09-02T07:37:27.382Z,65.82
2016-09-02T07:38:27.374Z,66.11
2016-09-02T07:39:26.558Z,66.69
2016-09-02T07:40:26.605Z,66.59
2016-09-02T07:42:26.498Z,67.17
2016-09-02T07:43:26.479Z,67.85
2016-09-02T07:45:26.434Z,67.14
2016-09-02T07:46:27.403Z,66.88
2016-09-02T07:47:26.358Z,65.53
2016-09-02T07:48:26.455Z,65.05
2016-09-02T07:49:26.345Z,65.24
2016-09-02T07:50:27.238Z,65.53
2016-09-02T07:51:27.089Z,65.43
2016-09-02T07:52:26.281Z,66.05
2016-09-02T07:53:26.287Z,66.5
2016-09-02T07:54:27.085Z,65.92
2016-09-02T07:55:26.957Z,66.01
2016-09-02T07:56:26.149Z,66.69
2016-09-02T07:57:26.137Z,66.98
2016-09-02T07:58:26.903Z,66.01
2016-09-02T07:59:26.090Z,65.43
2016-09-02T08:00:26.070Z,65.63
2016-09-02T08:01:27.343Z,65.63
2016-09-02T08:02:25.990Z,66.59
2016-09-02T08:03:26.812Z,66.69
2016-09-02T08:04:25.978Z,66.4
2016-09-02T08:05:26.950Z,66.78
2016-09-02T08:06:26.691Z,66.82
2016-09-02T08:07:26.650Z,65.63
2016-09-02T08:09:25.823Z,65.85
2016-09-02T08:10:25.806Z,65.92
2016-09-02T08:11:25.799Z,64.89
2016-09-02T08:12:26.679Z,65.08
2016-09-02T08:13:40.400Z,65.08
2016-09-02T08:14:25.735Z,64.01
2016-09-02T08:15:26.093Z,65.08
2016-09-02T08:16:25.680Z,65.27
2016-09-02T08:17:25.677Z,65.72
2016-09-02T08:18:26.392Z,66.05
2016-09-02T08:19:40.259Z,65.95
2016-09-02T08:20:25.562Z,65.53
2016-09-02T08:21:25.540Z,66.05
2016-09-02T08:22:26.922Z,65.92
2016-09-02T08:23:26.336Z,66.69
2016-09-02T08:24:25.461Z,67.08
2016-09-02T08:25:26.361Z,66.88
2016-09-02T08:26:26.214Z,67.46
2016-09-02T08:27:25.378Z,67.27
2016-09-02T08:28:25.439Z,66.05
2016-09-02T08:29:26.147Z,65.95
2016-09-02T08:30:25.364Z,65.56
2016-09-02T08:31:25.356Z,65.75
2016-09-02T08:32:25.419Z,66.91
2016-09-02T08:33:25.264Z,66.08
2016-09-02T08:34:25.585Z,64.82
2016-09-02T08:35:26.533Z,64.62
2016-09-02T08:36:39.847Z,64.53
2016-09-02T08:37:25.147Z,64.43
2016-09-02T08:38:25.183Z,64.04
2016-09-02T08:39:25.455Z,64.95
2016-09-02T08:40:25.080Z,64.24
2016-09-02T08:41:25.078Z,64.62
2016-09-02T08:42:25.852Z,65.01
2016-09-02T08:43:25.802Z,64.34
2016-09-02T08:44:24.995Z,64.37
2016-09-02T08:45:24.962Z,64.47
2016-09-02T08:46:24.960Z,64.07
2016-09-02T08:47:24.911Z,63.59
2016-09-02T08:48:24.873Z,63.98
2016-09-02T08:49:39.534Z,63.79
2016-09-02T08:50:24.839Z,63.82
2016-09-02T08:51:24.878Z,64.59
2016-09-02T08:52:25.558Z,64.17
2016-09-02T08:54:24.781Z,64.07
2016-09-02T08:55:25.616Z,63.49
2016-09-02T08:56:24.859Z,64.11
2016-09-02T08:57:24.665Z,63.79
2016-09-02T09:00:24.602Z,63.98
2016-09-02T09:01:25.507Z,64.43
2016-09-02T09:02:24.544Z,63.59
2016-09-02T09:03:39.253Z,64.43
2016-09-02T09:04:25.498Z,65.5
2016-09-02T09:05:24.515Z,65.3
2016-09-02T09:06:25.601Z,65.59
2016-09-02T09:07:25.213Z,65.88
2016-09-02T09:08:25.247Z,66.17
2016-09-02T09:09:25.261Z,65.3
2016-09-02T09:10:39.017Z,65.79
2016-09-02T09:11:25.102Z,64.92
2016-09-02T09:12:25.363Z,65.01
2016-09-02T09:13:24.287Z,65.59
2016-09-02T09:15:25.532Z,64.92
2016-09-02T09:16:24.211Z,65.3
2016-09-02T09:17:24.206Z,64.72
2016-09-02T09:18:25.041Z,64.92
2016-09-02T09:19:24.201Z,65.63
2016-09-02T09:20:24.978Z,64.47
2016-09-02T09:21:25.016Z,64.47
2016-09-02T09:22:24.271Z,64.07
2016-09-02T09:23:24.047Z,64.01
2016-09-02T09:24:24.142Z,63.72
2016-09-02T09:25:24.508Z,62.95
2016-09-02T09:27:23.944Z,62.95
2016-09-02T09:28:23.961Z,63.14
2016-09-02T09:29:24.059Z,63.53
2016-09-02T09:30:23.918Z,64.5
2016-09-02T09:31:24.637Z,62.46
2016-09-02T09:32:40.216Z,62.27
2016-09-02T09:33:24.595Z,62.17
2016-09-02T09:34:23.783Z,62.66
2016-09-02T09:35:24.549Z,62.07
2016-09-02T09:36:23.882Z,62.17
2016-09-02T09:37:24.523Z,62.56
2016-09-02T09:38:23.687Z,61.88
2016-09-02T09:39:23.674Z,61.4
2016-09-02T09:40:24.331Z,62.34
2016-09-02T09:41:38.284Z,62.07
2016-09-02T09:42:23.612Z,61.3
2016-09-02T09:43:24.378Z,61.3
2016-09-02T09:44:23.554Z,61.21
2016-09-02T09:45:38.203Z,61.04
2016-09-02T09:46:23.523Z,60.75
2016-09-02T09:47:23.457Z,61.24
2016-09-02T09:48:23.592Z,60.94
2016-09-02T09:49:23.462Z,60.07
2016-09-02T09:50:24.551Z,58.52
2016-09-02T09:51:23.470Z,59
2016-09-02T09:52:23.363Z,58.52
2016-09-02T09:53:24.110Z,60.07
2016-09-02T09:54:24.145Z,59.88
2016-09-02T09:55:23.345Z,58.65
2016-09-02T09:57:24.033Z,60.07
2016-09-02T09:58:24.232Z,58.14
2016-09-02T10:00:23.310Z,58.91
2016-09-02T10:01:24.144Z,59
2016-09-02T10:02:24.158Z,59.1
2016-09-02T10:04:37.864Z,58.04
2016-09-02T10:06:23.966Z,57.87
2016-09-02T10:07:37.759Z,57
2016-09-02T10:08:23.958Z,56.9
2016-09-02T10:09:23.089Z,57
2016-09-02T10:12:00.743Z,57.87
2016-09-02T10:12:47.033Z,56.61
2016-09-02T10:14:00.706Z,55.54
2016-09-02T10:14:46.942Z,55.93
2016-09-02T10:15:45.994Z,56.32
2016-09-02T10:16:46.765Z,56.03
2016-09-02T10:17:45.995Z,57.09
2016-09-02T10:18:45.986Z,56.64
2016-09-02T10:19:46.700Z,55.64
2016-09-02T10:20:45.875Z,56.15
2016-09-02T10:21:45.824Z,55.54
2016-09-02T10:22:45.884Z,56.71
2016-09-02T10:23:45.825Z,54.77
2016-09-02T10:24:46.546Z,56.51
2016-09-02T10:25:46.708Z,56.61
2016-09-02T10:27:00.833Z,55.54
2016-09-02T10:27:45.725Z,56.13
2016-09-02T10:28:45.666Z,54.86
2016-09-02T10:29:45.675Z,55.83
2016-09-02T10:31:00.528Z,56.03
2016-09-02T10:31:46.040Z,55.44
2016-09-02T10:32:45.586Z,54.48
2016-09-02T10:33:46.331Z,55.83
2016-09-02T10:34:46.583Z,55.44
2016-09-02T10:35:45.527Z,54.77
2016-09-02T10:36:45.518Z,54.74
2016-09-02T10:38:00.265Z,54.77
2016-09-02T10:38:45.484Z,54.16
2016-09-02T10:39:46.338Z,53.67
2016-09-02T10:40:45.818Z,53.02
2016-09-02T10:41:46.154Z,53.89
2016-09-02T10:42:46.981Z,53.61
2016-09-02T10:43:45.318Z,54.96
2016-09-02T10:44:45.362Z,53.02
2016-09-02T10:45:45.301Z,52.83
2016-09-02T10:46:45.249Z,53.12
2016-09-02T10:47:45.215Z,54.67
2016-09-02T10:48:45.329Z,53.61
2016-09-02T10:49:45.196Z,53.22
2016-09-02T10:50:45.558Z,52.73
2016-09-02T10:51:45.162Z,52.08
2016-09-02T10:52:45.120Z,52.86
2016-09-02T10:53:45.077Z,54.11
2016-09-02T10:55:45.207Z,52.56
2016-09-02T10:57:44.985Z,52.56
2016-09-02T10:58:44.984Z,50.43
2016-09-02T10:59:44.935Z,50.43
2016-09-02T11:00:45.029Z,50.6
2016-09-02T11:01:45.688Z,51.86
2016-09-02T11:02:44.944Z,51.76
2016-09-02T11:03:44.913Z,52.28
2016-09-02T11:04:44.830Z,51.76
2016-09-02T11:05:45.337Z,52.34
2016-09-02T11:06:45.597Z,50.89
2016-09-02T11:07:45.633Z,50.79
2016-09-02T11:09:45.709Z,51.79
2016-09-02T11:10:59.368Z,52.95
2016-09-02T11:11:44.829Z,52.2
2016-09-02T11:12:44.775Z,50.53
2016-09-02T11:13:59.282Z,51.01
2016-09-02T11:14:44.955Z,51.69
2016-09-02T11:15:59.245Z,50.72
2016-09-02T11:17:44.628Z,49.29
2016-09-02T11:18:45.287Z,50.53
2016-09-02T11:19:45.347Z,49.97
2016-09-02T11:21:46.019Z,50.26
2016-09-02T11:22:59.099Z,50.82
2016-09-02T11:23:45.518Z,51.31
2016-09-02T11:24:44.463Z,51.81
2016-09-02T11:25:45.175Z,50.26
2016-09-02T11:26:44.318Z,50.26
2016-09-02T11:27:44.303Z,49.1
2016-09-02T11:28:45.339Z,49.49
2016-09-02T11:29:44.294Z,49.97
2016-09-02T11:30:44.745Z,49.29
2016-09-02T11:31:44.208Z,49.61
2016-09-02T11:32:45.381Z,50.48
2016-09-02T11:33:44.216Z,50.19
2016-09-02T11:34:44.143Z,50.68
2016-09-02T11:35:44.181Z,49.99
2016-09-02T11:36:44.074Z,48.93
2016-09-02T11:37:44.046Z,49.9
2016-09-02T11:38:44.046Z,49.51
2016-09-02T11:39:44.800Z,48.64
2016-09-02T11:40:45.288Z,49.32
2016-09-02T11:41:44.025Z,48.15
2016-09-02T11:42:45.160Z,49.22
2016-09-02T11:43:43.923Z,49.8
2016-09-02T11:44:44.858Z,49.71
2016-09-02T11:45:45.169Z,50.87
2016-09-02T11:46:43.843Z,51.35
2016-09-02T11:49:43.787Z,49.99
2016-09-02T11:50:44.120Z,49.71
2016-09-02T11:51:43.742Z,49.99
2016-09-02T11:52:44.500Z,49.8
2016-09-02T11:53:43.718Z,49.99
2016-09-02T11:54:43.779Z,49.8
2016-09-02T11:55:43.698Z,50.21
2016-09-02T11:56:44.833Z,51.35
2016-09-02T11:57:45.137Z,50.6
2016-09-02T11:58:43.610Z,50.21
2016-09-02T11:59:58.223Z,50.02
2016-09-02T12:00:44.387Z,49.46
2016-09-02T12:01:58.186Z,47.61
2016-09-02T12:02:44.449Z,47.54
2016-09-02T12:03:43.475Z,46.59
2016-09-02T12:04:43.617Z,45.18
2016-09-02T12:06:43.418Z,46.15
2016-09-02T12:08:44.195Z,43.91
2016-09-02T12:09:44.106Z,42.72
2016-09-02T12:10:43.558Z,43.01
2016-09-02T12:11:43.300Z,43.89
2016-09-02T12:12:44.059Z,44.1
2016-09-02T12:13:43.274Z,44.69
2016-09-02T12:14:43.524Z,44.13
2016-09-02T12:15:44.592Z,42.98
2016-09-02T12:16:44.037Z,42.51
2016-09-02T12:17:43.975Z,41.27
2016-09-02T12:18:45.184Z,42.3
2016-09-02T12:19:43.133Z,43.25
2016-09-02T12:20:43.091Z,42.88
2016-09-02T12:21:43.169Z,42.66
2016-09-02T12:22:57.731Z,43.23
2016-09-02T12:23:44.047Z,43.43
2016-09-02T12:24:43.327Z,44.1
2016-09-02T12:25:43.135Z,43.13
2016-09-02T12:26:43.241Z,43.81
2016-09-02T12:27:43.472Z,43.91
2016-09-02T12:28:43.907Z,43.81
2016-09-02T12:29:43.784Z,44.35
2016-09-02T12:30:42.949Z,44.55
2016-09-02T12:31:57.884Z,45.74
2016-09-02T12:32:42.834Z,43.99
2016-09-02T12:33:43.859Z,44.45
2016-09-02T12:34:43.581Z,45.15
2016-09-02T12:35:45.773Z,44.67
2016-09-02T12:36:42.954Z,44.38
2016-09-02T12:37:43.749Z,44.09
2016-09-02T12:38:43.679Z,44.96
2016-09-02T12:41:42.683Z,43.38
2016-09-02T12:43:43.442Z,42.63
2016-09-02T12:44:43.514Z,43.48
2016-09-02T12:45:42.646Z,43.48
2016-09-02T12:46:43.704Z,43.01
2016-09-02T12:47:42.733Z,43.4
2016-09-02T12:48:57.184Z,43.01
2016-09-02T12:49:43.649Z,43.11
2016-09-02T12:50:42.516Z,42.53
2016-09-02T12:52:45.144Z,42.31
2016-09-02T12:53:42.444Z,43.19
2016-09-02T12:54:42.357Z,43.29
2016-09-02T12:55:42.660Z,44.74
2016-09-02T12:56:58.014Z,42.8
2016-09-02T12:57:42.373Z,42.63
2016-09-02T12:58:43.271Z,43.6
2016-09-02T13:00:03.225Z,42.63
2016-09-02T13:00:43.501Z,43.38
2016-09-02T13:01:44.277Z,44.16
2016-09-02T13:02:43.480Z,43.89
2016-09-02T13:03:58.137Z,43.79
2016-09-02T13:04:43.507Z,43.71
2016-09-02T13:05:58.824Z,42.06
2016-09-02T13:06:43.418Z,42.16
2016-09-02T13:07:43.336Z,41.48
2016-09-02T13:08:43.353Z,41.46
2016-09-02T13:09:44.683Z,40.89
2016-09-02T13:10:44.923Z,41.06
2016-09-02T13:12:44.548Z,42.72
2016-09-02T13:14:44.208Z,43.52
2016-09-02T13:15:45.003Z,44.28
2016-09-02T13:16:44.153Z,43.23
2016-09-02T13:18:43.095Z,41.4
2016-09-02T13:19:44.147Z,40.23
2016-09-02T13:20:45.008Z,40.89
2016-09-02T13:22:45.616Z,38.79
2016-09-02T13:23:43.095Z,38.71
2016-09-02T13:24:43.250Z,37.93
2016-09-02T13:25:43.321Z,36.8
2016-09-02T13:26:42.943Z,36.05
2016-09-02T13:27:42.983Z,36.16
2016-09-02T13:29:44.444Z,37.02
2016-09-02T13:31:43.062Z,34.97
2016-09-02T13:33:43.585Z,34.58
2016-09-02T13:34:44.782Z,35.11
2016-09-02T13:35:42.923Z,33.65
2016-09-02T13:36:43.475Z,32.71
2016-09-02T13:38:43.111Z,34.08
2016-09-02T13:39:44.292Z,32.42
2016-09-02T13:40:44.208Z,33.28
2016-09-02T13:41:43.570Z,33.95
2016-09-02T13:42:44.661Z,34.64